Flight Track Log - Related Links

Times and Time Zones

All times are in EDT time to prevent confusion due to time zone crossing. See the ASQ6057 flight status page for this flight to view local times or setup timezone preferences in your user account.

Time Position Orientation Groundspeed Altitude Reporting Facility
EDT Latitude Longitude Course Direction KTS MPH feet Rate Location/Type
Mon 10:26:15 PM 41.9553 -87.9000 77° East  Level FlightAware Approximate
Mon 10:26:50 PM 41.9667 -87.8333 180° South 219 252 2,700  Level Chicago TRACON
Mon 10:27:50 PM 41.9000 -87.8333 191° South 252 290 4,600 1,923 Climbing Chicago TRACON
Mon 10:29:51 PM 41.7428 -87.8750 181° South 280 322 8,500 1,890 Climbing Chicago Center
Mon 10:30:51 PM 41.6553 -87.8769 180° South 298 343 10,300 1,450 Climbing Chicago Center
Mon 10:31:51 PM 41.5614 -87.8764 181° South 315 362 11,400 1,050 Climbing Chicago Center
Mon 10:32:51 PM 41.4572 -87.8786 183° South 344 396 12,400 1,200 Climbing Chicago Center
Mon 10:33:51 PM 41.3489 -87.8867 183° South 382 440 13,800 1,450 Climbing Chicago Center
Mon 10:34:51 PM 41.2386 -87.8947 179° South 394 453 15,300 1,500 Climbing Chicago Center
Mon 10:35:51 PM 41.1258 -87.8917 179° South 401 461 16,800 1,550 Climbing Chicago Center
Mon 10:36:51 PM 41.0153 -87.8886 178° South 406 467 18,400 1,500 Climbing Chicago Center
Mon 10:37:51 PM 40.9006 -87.8831 179° South 406 467 19,800 1,450 Climbing Chicago Center
Mon 10:38:51 PM 40.7839 -87.8800 178° South 406 467 21,300 1,500 Climbing Chicago Center
Mon 10:39:51 PM 40.6650 -87.8744 179° South 411 473 22,800 1,450 Climbing Chicago Center
Mon 10:40:51 PM 40.5439 -87.8719 178° South 424 488 24,200 1,450 Climbing Chicago Center
Mon 10:41:51 PM 40.4250 -87.8661 180° South 429 494 25,700 1,450 Climbing Chicago Center
Mon 10:42:51 PM 40.3064 -87.8661 177° South 429 494 27,100 1,200 Climbing Chicago Center
Mon 10:43:51 PM 40.2083 -87.8603 179° South 429 494 28,100 1,029 Climbing Chicago Center
Mon 10:45:11 PM 40.0231 -87.8542 177° South 458 527 29,500 1,029 Climbing Indianapolis Center
Mon 10:46:11 PM 39.9003 -87.8467 178° South 458 527 30,500 1,000 Climbing Indianapolis Center
Mon 10:47:11 PM 39.7650 -87.8411 176° South 468 539 31,500 1,000 Climbing Indianapolis Center
Mon 10:48:11 PM 39.6381 -87.8306 170° South 473 544 32,500 1,000 Climbing Indianapolis Center
Mon 10:49:11 PM 39.5036 -87.7983 169° South 484 557 33,500 1,050 Climbing Indianapolis Center
Mon 10:50:11 PM 39.3631 -87.7631 167° South 484 557 34,600 750 Climbing Indianapolis Center
Mon 10:51:11 PM 39.2331 -87.7258 170° South 479 551 35,000 200 Climbing Indianapolis Center
Mon 10:52:11 PM 39.1111 -87.6972 168° South 489 563 35,000  Level Indianapolis Center
Mon 10:53:11 PM 38.9683 -87.6597 169° South 505 581 35,000  Level Indianapolis Center
Mon 10:54:11 PM 38.8236 -87.6247 169° South 520 598 35,000  Level Indianapolis Center
Mon 10:55:11 PM 38.6769 -87.5872 169° South 535 616 35,000  Level Indianapolis Center
Mon 10:56:11 PM 38.5322 -87.5500 169° South 535 616 35,000  Level Indianapolis Center
Mon 10:57:11 PM 38.3769 -87.5097 169° South 535 616 35,000 -450 Level Indianapolis Center
Mon 10:58:11 PM 38.2383 -87.4758 169° South 529 609 34,100 -1,600 Descending Indianapolis Center
Mon 10:59:11 PM 38.1019 -87.4422 168° South 516 594 31,800 -2,600 Descending Indianapolis Center
Mon 11:00:11 PM 37.9653 -87.4061 169° South 506 582 28,900 -2,780 Descending Indianapolis Center
Mon 11:01:55 PM 37.7453 -87.3519 169° South 506 582 24,200 -2,817 Descending Memphis Center
Mon 11:02:55 PM 37.6156 -87.3203 169° South 487 560 21,200 -2,100 Descending Memphis Center
Mon 11:03:55 PM 37.4919 -87.2911 170° South 461 531 20,000 -600 Descending Memphis Center
Mon 11:04:55 PM 37.3514 -87.2600 167° South 461 531 20,000  Level Memphis Center
Mon 11:05:55 PM 37.2214 -87.2233 167° South 473 544 20,000  Level Memphis Center
Mon 11:06:55 PM 37.0956 -87.1867 158° South 473 544 20,000 -750 Level Memphis Center
Mon 11:07:55 PM 36.9772 -87.1264 156° South 468 539 18,500 -1,500 Descending Memphis Center
Mon 11:08:55 PM 36.8608 -87.0611 158° South 461 531 17,000 -1,500 Descending Memphis Center
Mon 11:09:55 PM 36.7447 -87.0011 158° South 452 520 15,500 -1,500 Descending Memphis Center
Mon 11:10:55 PM 36.6369 -86.9461 152° Southeast 447 514 14,000 -1,500 Descending Memphis Center
Mon 11:11:55 PM 36.5436 -86.8856 149° Southeast 397 457 12,500 -1,350 Descending Memphis Center
Mon 11:12:55 PM 36.4606 -86.8247 147° Southeast 387 445 11,300 -1,250 Descending Memphis Center
Mon 11:13:55 PM 36.3817 -86.7611 148° Southeast 356 410 10,000 -1,500 Descending Memphis Center
Mon 11:14:55 PM 36.3092 -86.7050 149° Southeast 319 367 8,300 -1,800 Descending Memphis Center
Mon 11:15:55 PM 36.2303 -86.6469 149° Southeast 306 352 6,400 -1,500 Descending Memphis Center
Mon 11:16:55 PM 36.1661 -86.5983 138° Southeast 290 334 5,300 -1,200 Descending Memphis Center
Mon 11:17:55 PM 36.1144 -86.5417 138° Southeast 268 308 4,000 -1,300 Descending Memphis Center

Login

Don't have an account? Register now (free) for customized features, flight alerts, and more!